This is the latest recevied weather packets stored in our database for station/object N2XGL-1. If no packets are shown the sender has not sent any weather packets the latest 10 day(s).
| Time | Temp. | Humidity | Pressure | Rain* | Wind** | Luminosity | Snow |
|---|---|---|---|---|---|---|---|
| 1777329563 | 12.22° C | 53% | 1008.6 hPa | 0 mm | - | - | - |
| 1777327878 | 13.33° C | 50% | 1008.2 hPa | 0 mm | - | - | - |
| 1777326909 | 13.33° C | 52% | 1008.5 hPa | 0 mm | - | - | - |
| 1777326405 | 12.78° C | 55% | 1008.7 hPa | 0 mm | - | - | - |
| 1777325858 | 12.78° C | 57% | 1009 hPa | 0 mm | - | - | - |
| 1777325319 | 12.78° C | 55% | 1008.9 hPa | 0 mm | - | - | - |
| 1777324794 | 12.78° C | 51% | 1008.8 hPa | 0 mm | - | - | - |
| 1777324203 | 13.33° C | 51% | 1008.9 hPa | 0 mm | - | - | - |
| 1777323621 | 12.78° C | 54% | 1008.9 hPa | 0 mm | - | - | - |
| 1777323049 | 12.78° C | 53% | 1009 hPa | 0 mm | - | - | - |
| 1777322489 | 12.78° C | 52% | 1009.2 hPa | 0 mm | - | - | - |
| 1777321894 | 13.33° C | 52% | 1009.2 hPa | 0 mm | - | - | - |
| 1777321379 | 12.78° C | 53% | 1009.4 hPa | 0 mm | - | - | - |
| 1777320881 | 12.22° C | 59% | 1009.5 hPa | 0 mm | - | - | - |
| 1777319841 | 10° C | 60% | 1009.9 hPa | 0 mm | - | - | - |
| 1777319354 | 10° C | 61% | 1010 hPa | 0 mm | - | - | - |
| 1777317937 | 10° C | 62% | 1010.1 hPa | 0 mm | - | - | - |
| 1777317701 | 10° C | 62% | 1010.1 hPa | 0 mm | - | - | - |
| 1777317129 | 10° C | 60% | 1010.2 hPa | 0 mm | - | - | - |
| 1777316589 | 10° C | 62% | 1010.3 hPa | 0 mm | - | - | - |
| 1777315994 | 8.89° C | 66% | 1010.4 hPa | 0 mm | - | - | - |
| 1777314931 | 8.89° C | 63% | 1010.6 hPa | 0 mm | - | - | - |
| 1777314379 | 8.33° C | 66% | 1010.6 hPa | 0 mm | - | - | - |
| 1777313792 | 8.33° C | 64% | 1010.7 hPa | 0 mm | - | - | - |
| 1777313204 | 8.33° C | 65% | 1010.8 hPa | 0 mm | - | - | - |
* Rain latest hour (hover to see other rain measurements)
** Current wind speed in m/s (hover to see current wind gust speed)